sensor_id;sensor_type;location;lat;lon;timestamp;P1;durP1;ratioP1;P2;durP2;ratioP2
76826;SDS011;65788;52.284;20.890;2023-08-01T00:01:03;4.50;;;2.50;;
76826;SDS011;65788;52.284;20.890;2023-08-01T00:03:30;4.50;;;2.30;;
76826;SDS011;65788;52.284;20.890;2023-08-01T00:05:57;5.70;;;2.10;;
76826;SDS011;65788;52.284;20.890;2023-08-01T00:08:24;3.50;;;2.10;;
76826;SDS011;65788;52.284;20.890;2023-08-01T00:10:51;4.30;;;2.30;;
76826;SDS011;65788;52.284;20.890;2023-08-01T00:13:17;3.70;;;2.30;;
76826;SDS011;65788;52.284;20.890;2023-08-01T00:15:44;4.90;;;2.30;;
76826;SDS011;65788;52.284;20.890;2023-08-01T00:18:11;5.10;;;2.80;;
76826;SDS011;65788;52.284;20.890;2023-08-01T00:20:37;4.50;;;2.40;;
76826;SDS011;65788;52.284;20.890;2023-08-01T00:25:32;3.90;;;2.30;;
76826;SDS011;65788;52.284;20.890;2023-08-01T00:27:59;3.50;;;2.20;;
76826;SDS011;65788;52.284;20.890;2023-08-01T00:30:25;3.70;;;2.40;;
76826;SDS011;65788;52.284;20.890;2023-08-01T00:32:52;4.10;;;2.30;;
76826;SDS011;65788;52.284;20.890;2023-08-01T00:35:18;3.80;;;2.20;;
76826;SDS011;65788;52.284;20.890;2023-08-01T00:37:45;4.50;;;2.30;;
76826;SDS011;65788;52.284;20.890;2023-08-01T00:40:12;5.20;;;2.50;;
76826;SDS011;65788;52.284;20.890;2023-08-01T00:42:38;3.70;;;2.40;;
76826;SDS011;65788;52.284;20.890;2023-08-01T00:45:07;4.60;;;2.70;;
76826;SDS011;65788;52.284;20.890;2023-08-01T00:47:35;4.10;;;2.60;;
76826;SDS011;65788;52.284;20.890;2023-08-01T00:50:02;6.90;;;2.50;;
76826;SDS011;65788;52.284;20.890;2023-08-01T00:52:29;4.60;;;2.40;;
76826;SDS011;65788;52.284;20.890;2023-08-01T00:54:56;4.70;;;2.60;;
76826;SDS011;65788;52.284;20.890;2023-08-01T00:57:23;4.00;;;2.60;;
76826;SDS011;65788;52.284;20.890;2023-08-01T00:59:50;3.70;;;2.40;;
76826;SDS011;65788;52.284;20.890;2023-08-01T01:02:17;3.70;;;2.10;;
76826;SDS011;65788;52.284;20.890;2023-08-01T01:04:43;5.30;;;2.40;;
76826;SDS011;65788;52.284;20.890;2023-08-01T01:07:10;4.00;;;2.30;;
76826;SDS011;65788;52.284;20.890;2023-08-01T01:09:38;4.20;;;2.10;;
76826;SDS011;65788;52.284;20.890;2023-08-01T01:12:05;4.10;;;2.70;;
76826;SDS011;65788;52.284;20.890;2023-08-01T01:14:33;3.80;;;2.10;;
76826;SDS011;65788;52.284;20.890;2023-08-01T01:17:00;4.20;;;2.10;;
76826;SDS011;65788;52.284;20.890;2023-08-01T01:19:26;4.40;;;2.60;;
76826;SDS011;65788;52.284;20.890;2023-08-01T01:24:57;4.40;;;2.50;;
76826;SDS011;65788;52.284;20.890;2023-08-01T01:27:27;3.90;;;2.40;;
76826;SDS011;65788;52.284;20.890;2023-08-01T01:29:54;4.50;;;2.40;;
76826;SDS011;65788;52.284;20.890;2023-08-01T01:32:21;5.20;;;2.20;;
76826;SDS011;65788;52.284;20.890;2023-08-01T01:34:49;5.50;;;2.30;;
76826;SDS011;65788;52.284;20.890;2023-08-01T01:37:16;3.60;;;2.20;;
76826;SDS011;65788;52.284;20.890;2023-08-01T01:39:42;3.10;;;2.40;;
76826;SDS011;65788;52.284;20.890;2023-08-01T01:42:09;4.40;;;2.40;;
76826;SDS011;65788;52.284;20.890;2023-08-01T01:44:36;3.50;;;2.20;;
76826;SDS011;65788;52.284;20.890;2023-08-01T01:47:03;4.10;;;2.20;;
76826;SDS011;65788;52.284;20.890;2023-08-01T01:49:29;3.40;;;2.10;;
76826;SDS011;65788;52.284;20.890;2023-08-01T01:51:56;3.60;;;2.30;;
76826;SDS011;65788;52.284;20.890;2023-08-01T01:54:23;3.20;;;2.10;;
76826;SDS011;65788;52.284;20.890;2023-08-01T01:56:49;3.30;;;2.40;;
76826;SDS011;65788;52.284;20.890;2023-08-01T01:59:16;4.40;;;2.40;;
76826;SDS011;65788;52.284;20.890;2023-08-01T02:01:43;3.70;;;2.40;;
76826;SDS011;65788;52.284;20.890;2023-08-01T02:04:09;4.70;;;2.50;;
76826;SDS011;65788;52.284;20.890;2023-08-01T02:06:36;3.60;;;2.40;;
76826;SDS011;65788;52.284;20.890;2023-08-01T02:09:03;4.50;;;2.20;;
76826;SDS011;65788;52.284;20.890;2023-08-01T02:11:30;4.40;;;2.70;;
76826;SDS011;65788;52.284;20.890;2023-08-01T02:13:57;4.80;;;2.30;;
76826;SDS011;65788;52.284;20.890;2023-08-01T02:16:24;4.50;;;2.60;;
76826;SDS011;65788;52.284;20.890;2023-08-01T02:18:50;4.80;;;2.40;;
76826;SDS011;65788;52.284;20.890;2023-08-01T02:21:17;3.70;;;2.40;;
76826;SDS011;65788;52.284;20.890;2023-08-01T02:23:44;4.10;;;2.20;;
76826;SDS011;65788;52.284;20.890;2023-08-01T02:26:10;5.00;;;2.30;;
76826;SDS011;65788;52.284;20.890;2023-08-01T02:28:37;3.90;;;2.40;;
76826;SDS011;65788;52.284;20.890;2023-08-01T02:31:04;3.80;;;2.20;;
76826;SDS011;65788;52.284;20.890;2023-08-01T02:33:30;3.90;;;2.40;;
76826;SDS011;65788;52.284;20.890;2023-08-01T02:35:57;3.00;;;2.00;;
76826;SDS011;65788;52.284;20.890;2023-08-01T02:38:24;3.70;;;2.10;;
76826;SDS011;65788;52.284;20.890;2023-08-01T02:40:50;5.50;;;2.50;;
76826;SDS011;65788;52.284;20.890;2023-08-01T02:43:17;3.60;;;2.20;;
76826;SDS011;65788;52.284;20.890;2023-08-01T02:45:44;3.80;;;2.50;;
76826;SDS011;65788;52.284;20.890;2023-08-01T02:48:11;3.80;;;2.40;;
76826;SDS011;65788;52.284;20.890;2023-08-01T02:50:38;4.10;;;2.70;;
76826;SDS011;65788;52.284;20.890;2023-08-01T02:53:05;4.60;;;2.40;;
76826;SDS011;65788;52.284;20.890;2023-08-01T02:55:32;3.80;;;2.40;;
76826;SDS011;65788;52.284;20.890;2023-08-01T02:57:59;4.30;;;2.20;;
76826;SDS011;65788;52.284;20.890;2023-08-01T03:00:25;3.20;;;2.20;;
76826;SDS011;65788;52.284;20.890;2023-08-01T03:02:52;3.80;;;2.50;;
76826;SDS011;65788;52.284;20.890;2023-08-01T03:05:19;4.80;;;2.50;;
76826;SDS011;65788;52.284;20.890;2023-08-01T03:07:46;5.80;;;2.80;;
76826;SDS011;65788;52.284;20.890;2023-08-01T03:10:13;3.80;;;2.30;;
76826;SDS011;65788;52.284;20.890;2023-08-01T03:12:40;4.00;;;2.50;;
76826;SDS011;65788;52.284;20.890;2023-08-01T03:15:07;5.00;;;2.60;;
76826;SDS011;65788;52.284;20.890;2023-08-01T03:17:35;4.20;;;2.50;;
76826;SDS011;65788;52.284;20.890;2023-08-01T03:20:02;4.90;;;3.00;;
76826;SDS011;65788;52.284;20.890;2023-08-01T03:22:29;4.20;;;2.70;;
76826;SDS011;65788;52.284;20.890;2023-08-01T03:24:56;4.90;;;2.50;;
76826;SDS011;65788;52.284;20.890;2023-08-01T03:27:22;3.70;;;2.40;;
76826;SDS011;65788;52.284;20.890;2023-08-01T03:29:50;3.90;;;2.50;;
76826;SDS011;65788;52.284;20.890;2023-08-01T03:32:17;4.70;;;2.60;;
76826;SDS011;65788;52.284;20.890;2023-08-01T03:34:43;3.30;;;2.30;;
76826;SDS011;65788;52.284;20.890;2023-08-01T03:37:10;5.40;;;2.90;;
76826;SDS011;65788;52.284;20.890;2023-08-01T03:39:36;4.90;;;2.80;;
76826;SDS011;65788;52.284;20.890;2023-08-01T03:42:03;3.30;;;2.20;;
76826;SDS011;65788;52.284;20.890;2023-08-01T03:44:30;3.60;;;2.30;;
76826;SDS011;65788;52.284;20.890;2023-08-01T03:46:58;4.10;;;2.50;;
76826;SDS011;65788;52.284;20.890;2023-08-01T03:49:25;3.30;;;2.50;;
76826;SDS011;65788;52.284;20.890;2023-08-01T03:51:52;5.20;;;2.60;;
76826;SDS011;65788;52.284;20.890;2023-08-01T03:54:18;3.90;;;2.60;;
76826;SDS011;65788;52.284;20.890;2023-08-01T03:56:45;4.40;;;2.40;;
76826;SDS011;65788;52.284;20.890;2023-08-01T03:59:15;4.20;;;2.70;;
76826;SDS011;65788;52.284;20.890;2023-08-01T04:01:42;4.40;;;2.70;;
76826;SDS011;65788;52.284;20.890;2023-08-01T04:04:09;4.10;;;2.70;;
76826;SDS011;65788;52.284;20.890;2023-08-01T04:06:37;3.90;;;2.50;;
76826;SDS011;65788;52.284;20.890;2023-08-01T04:09:03;4.30;;;2.70;;
76826;SDS011;65788;52.284;20.890;2023-08-01T04:11:30;4.70;;;2.60;;
76826;SDS011;65788;52.284;20.890;2023-08-01T04:14:17;4.60;;;2.90;;
76826;SDS011;65788;52.284;20.890;2023-08-01T04:16:43;4.10;;;2.70;;
76826;SDS011;65788;52.284;20.890;2023-08-01T04:19:10;4.10;;;2.40;;
76826;SDS011;65788;52.284;20.890;2023-08-01T04:21:37;4.30;;;2.60;;
76826;SDS011;65788;52.284;20.890;2023-08-01T04:24:03;4.40;;;2.50;;
76826;SDS011;65788;52.284;20.890;2023-08-01T04:26:30;4.40;;;2.40;;
76826;SDS011;65788;52.284;20.890;2023-08-01T04:28:57;3.70;;;2.60;;
76826;SDS011;65788;52.284;20.890;2023-08-01T04:31:24;4.30;;;2.70;;
76826;SDS011;65788;52.284;20.890;2023-08-01T04:33:50;5.40;;;2.70;;
76826;SDS011;65788;52.284;20.890;2023-08-01T04:36:17;4.10;;;2.50;;
76826;SDS011;65788;52.284;20.890;2023-08-01T04:38:43;4.30;;;2.50;;
76826;SDS011;65788;52.284;20.890;2023-08-01T04:41:10;4.30;;;2.50;;
76826;SDS011;65788;52.284;20.890;2023-08-01T04:43:37;4.50;;;2.70;;
76826;SDS011;65788;52.284;20.890;2023-08-01T04:46:03;4.20;;;2.30;;
76826;SDS011;65788;52.284;20.890;2023-08-01T04:48:30;5.40;;;2.90;;
76826;SDS011;65788;52.284;20.890;2023-08-01T04:50:57;4.20;;;2.60;;
76826;SDS011;65788;52.284;20.890;2023-08-01T04:53:23;4.50;;;3.10;;
76826;SDS011;65788;52.284;20.890;2023-08-01T04:55:50;5.20;;;2.90;;
76826;SDS011;65788;52.284;20.890;2023-08-01T04:58:17;5.50;;;2.60;;
76826;SDS011;65788;52.284;20.890;2023-08-01T05:00:44;4.80;;;2.80;;
76826;SDS011;65788;52.284;20.890;2023-08-01T05:03:10;5.30;;;2.80;;
76826;SDS011;65788;52.284;20.890;2023-08-01T05:05:37;4.80;;;2.70;;
76826;SDS011;65788;52.284;20.890;2023-08-01T05:08:04;5.30;;;2.70;;
76826;SDS011;65788;52.284;20.890;2023-08-01T05:10:30;4.60;;;2.70;;
76826;SDS011;65788;52.284;20.890;2023-08-01T05:12:57;4.70;;;2.90;;
76826;SDS011;65788;52.284;20.890;2023-08-01T05:15:24;3.60;;;2.30;;
76826;SDS011;65788;52.284;20.890;2023-08-01T05:17:52;4.90;;;2.50;;
76826;SDS011;65788;52.284;20.890;2023-08-01T05:20:19;4.20;;;2.30;;
76826;SDS011;65788;52.284;20.890;2023-08-01T05:22:46;5.00;;;3.00;;
76826;SDS011;65788;52.284;20.890;2023-08-01T05:25:12;4.20;;;2.90;;
76826;SDS011;65788;52.284;20.890;2023-08-01T05:27:39;3.90;;;2.30;;
76826;SDS011;65788;52.284;20.890;2023-08-01T05:30:06;4.20;;;2.80;;
76826;SDS011;65788;52.284;20.890;2023-08-01T05:32:33;4.70;;;2.30;;
76826;SDS011;65788;52.284;20.890;2023-08-01T05:35:00;4.10;;;2.30;;
76826;SDS011;65788;52.284;20.890;2023-08-01T05:37:26;4.30;;;2.70;;
76826;SDS011;65788;52.284;20.890;2023-08-01T05:39:53;4.30;;;2.30;;
76826;SDS011;65788;52.284;20.890;2023-08-01T05:42:19;3.60;;;2.10;;
76826;SDS011;65788;52.284;20.890;2023-08-01T05:44:46;3.70;;;2.50;;
76826;SDS011;65788;52.284;20.890;2023-08-01T05:47:13;3.40;;;2.20;;
76826;SDS011;65788;52.284;20.890;2023-08-01T05:49:39;5.00;;;2.50;;
76826;SDS011;65788;52.284;20.890;2023-08-01T05:52:07;5.10;;;2.70;;
76826;SDS011;65788;52.284;20.890;2023-08-01T05:54:34;3.50;;;2.20;;
76826;SDS011;65788;52.284;20.890;2023-08-01T05:57:01;3.90;;;2.70;;
76826;SDS011;65788;52.284;20.890;2023-08-01T05:59:27;3.50;;;2.50;;
76826;SDS011;65788;52.284;20.890;2023-08-01T06:01:54;4.30;;;2.60;;
76826;SDS011;65788;52.284;20.890;2023-08-01T06:04:21;4.00;;;2.40;;
76826;SDS011;65788;52.284;20.890;2023-08-01T06:06:47;4.00;;;2.10;;
76826;SDS011;65788;52.284;20.890;2023-08-01T06:09:14;4.90;;;2.40;;
76826;SDS011;65788;52.284;20.890;2023-08-01T06:11:41;4.90;;;2.50;;
76826;SDS011;65788;52.284;20.890;2023-08-01T06:14:08;3.40;;;2.30;;
76826;SDS011;65788;52.284;20.890;2023-08-01T06:16:36;5.20;;;3.10;;
76826;SDS011;65788;52.284;20.890;2023-08-01T06:19:02;5.00;;;2.50;;
76826;SDS011;65788;52.284;20.890;2023-08-01T06:21:29;4.10;;;2.60;;
76826;SDS011;65788;52.284;20.890;2023-08-01T06:23:56;3.50;;;2.40;;
76826;SDS011;65788;52.284;20.890;2023-08-01T06:26:22;4.80;;;2.30;;
76826;SDS011;65788;52.284;20.890;2023-08-01T06:28:49;3.60;;;2.20;;
76826;SDS011;65788;52.284;20.890;2023-08-01T06:31:17;6.30;;;2.60;;
76826;SDS011;65788;52.284;20.890;2023-08-01T06:33:44;4.00;;;2.80;;
76826;SDS011;65788;52.284;20.890;2023-08-01T06:36:10;4.10;;;2.40;;
76826;SDS011;65788;52.284;20.890;2023-08-01T06:38:37;4.50;;;2.40;;
76826;SDS011;65788;52.284;20.890;2023-08-01T06:41:04;3.40;;;2.30;;
76826;SDS011;65788;52.284;20.890;2023-08-01T06:43:30;4.50;;;2.50;;
76826;SDS011;65788;52.284;20.890;2023-08-01T06:45:57;4.40;;;2.40;;
76826;SDS011;65788;52.284;20.890;2023-08-01T06:48:24;3.10;;;2.10;;
76826;SDS011;65788;52.284;20.890;2023-08-01T06:50:50;4.30;;;2.50;;
76826;SDS011;65788;52.284;20.890;2023-08-01T06:53:17;7.20;;;2.40;;
76826;SDS011;65788;52.284;20.890;2023-08-01T06:55:44;3.80;;;2.20;;
76826;SDS011;65788;52.284;20.890;2023-08-01T06:58:10;4.70;;;2.60;;
76826;SDS011;65788;52.284;20.890;2023-08-01T07:00:37;4.70;;;2.30;;
76826;SDS011;65788;52.284;20.890;2023-08-01T07:03:04;4.50;;;2.30;;
76826;SDS011;65788;52.284;20.890;2023-08-01T07:05:30;3.70;;;2.40;;
76826;SDS011;65788;52.284;20.890;2023-08-01T07:07:57;4.30;;;2.50;;
76826;SDS011;65788;52.284;20.890;2023-08-01T07:10:24;5.30;;;2.60;;
76826;SDS011;65788;52.284;20.890;2023-08-01T07:12:51;4.30;;;2.60;;
76826;SDS011;65788;52.284;20.890;2023-08-01T07:15:17;5.10;;;2.40;;
76826;SDS011;65788;52.284;20.890;2023-08-01T07:17:44;4.30;;;2.50;;
76826;SDS011;65788;52.284;20.890;2023-08-01T07:20:12;3.70;;;2.50;;
76826;SDS011;65788;52.284;20.890;2023-08-01T07:22:39;6.30;;;2.60;;
76826;SDS011;65788;52.284;20.890;2023-08-01T07:25:06;4.40;;;2.40;;
76826;SDS011;65788;52.284;20.890;2023-08-01T07:27:33;5.10;;;2.60;;
76826;SDS011;65788;52.284;20.890;2023-08-01T07:29:59;3.60;;;2.20;;
76826;SDS011;65788;52.284;20.890;2023-08-01T07:32:26;4.10;;;2.50;;
76826;SDS011;65788;52.284;20.890;2023-08-01T07:34:52;5.60;;;2.50;;
76826;SDS011;65788;52.284;20.890;2023-08-01T07:37:19;4.60;;;2.50;;
76826;SDS011;65788;52.284;20.890;2023-08-01T07:39:46;4.50;;;2.50;;
76826;SDS011;65788;52.284;20.890;2023-08-01T07:42:12;5.10;;;2.70;;
76826;SDS011;65788;52.284;20.890;2023-08-01T07:44:39;3.30;;;2.40;;
76826;SDS011;65788;52.284;20.890;2023-08-01T07:47:06;5.80;;;2.70;;
76826;SDS011;65788;52.284;20.890;2023-08-01T07:49:33;4.30;;;2.70;;
76826;SDS011;65788;52.284;20.890;2023-08-01T07:52:00;4.60;;;2.40;;
76826;SDS011;65788;52.284;20.890;2023-08-01T07:54:26;4.10;;;2.90;;
76826;SDS011;65788;52.284;20.890;2023-08-01T07:56:53;7.20;;;2.80;;
76826;SDS011;65788;52.284;20.890;2023-08-01T07:59:20;5.10;;;2.50;;
76826;SDS011;65788;52.284;20.890;2023-08-01T08:01:46;3.90;;;2.40;;
76826;SDS011;65788;52.284;20.890;2023-08-01T08:04:13;5.30;;;3.00;;
76826;SDS011;65788;52.284;20.890;2023-08-01T08:06:40;4.50;;;2.30;;
76826;SDS011;65788;52.284;20.890;2023-08-01T08:09:07;3.90;;;2.50;;
76826;SDS011;65788;52.284;20.890;2023-08-01T08:11:34;5.00;;;2.20;;
76826;SDS011;65788;52.284;20.890;2023-08-01T08:14:00;4.40;;;2.70;;
76826;SDS011;65788;52.284;20.890;2023-08-01T08:16:27;4.80;;;2.50;;
76826;SDS011;65788;52.284;20.890;2023-08-01T08:18:54;5.10;;;2.30;;
76826;SDS011;65788;52.284;20.890;2023-08-01T08:21:21;5.20;;;2.40;;
76826;SDS011;65788;52.284;20.890;2023-08-01T08:23:47;3.70;;;2.40;;
76826;SDS011;65788;52.284;20.890;2023-08-01T08:26:14;5.20;;;2.90;;
76826;SDS011;65788;52.284;20.890;2023-08-01T08:28:41;4.10;;;2.40;;
76826;SDS011;65788;52.284;20.890;2023-08-01T08:31:08;3.80;;;2.30;;
76826;SDS011;65788;52.284;20.890;2023-08-01T08:33:35;4.10;;;2.40;;
76826;SDS011;65788;52.284;20.890;2023-08-01T08:36:02;3.70;;;2.40;;
76826;SDS011;65788;52.284;20.890;2023-08-01T08:38:28;3.60;;;2.20;;
76826;SDS011;65788;52.284;20.890;2023-08-01T08:40:57;4.10;;;2.40;;
76826;SDS011;65788;52.284;20.890;2023-08-01T08:43:33;7.20;;;2.60;;
76826;SDS011;65788;52.284;20.890;2023-08-01T08:46:02;3.60;;;2.40;;
76826;SDS011;65788;52.284;20.890;2023-08-01T08:48:30;4.40;;;2.40;;
76826;SDS011;65788;52.284;20.890;2023-08-01T08:50:59;4.10;;;2.20;;
76826;SDS011;65788;52.284;20.890;2023-08-01T08:55:53;4.90;;;2.50;;
76826;SDS011;65788;52.284;20.890;2023-08-01T08:58:20;4.90;;;2.60;;
76826;SDS011;65788;52.284;20.890;2023-08-01T09:00:48;2.90;;;2.10;;
76826;SDS011;65788;52.284;20.890;2023-08-01T09:03:15;3.60;;;2.10;;
76826;SDS011;65788;52.284;20.890;2023-08-01T09:05:44;3.50;;;2.30;;
76826;SDS011;65788;52.284;20.890;2023-08-01T09:08:20;3.70;;;2.00;;
76826;SDS011;65788;52.284;20.890;2023-08-01T09:10:48;3.60;;;2.20;;
76826;SDS011;65788;52.284;20.890;2023-08-01T09:13:15;4.40;;;2.50;;
76826;SDS011;65788;52.284;20.890;2023-08-01T09:15:41;3.20;;;2.10;;
76826;SDS011;65788;52.284;20.890;2023-08-01T09:18:11;3.60;;;2.40;;
76826;SDS011;65788;52.284;20.890;2023-08-01T09:20:41;4.00;;;2.30;;
76826;SDS011;65788;52.284;20.890;2023-08-01T09:23:13;3.20;;;2.30;;
76826;SDS011;65788;52.284;20.890;2023-08-01T09:25:40;3.40;;;2.10;;
76826;SDS011;65788;52.284;20.890;2023-08-01T09:30:53;3.30;;;2.00;;
76826;SDS011;65788;52.284;20.890;2023-08-01T09:33:21;3.80;;;2.50;;
76826;SDS011;65788;52.284;20.890;2023-08-01T09:35:49;3.00;;;2.20;;
76826;SDS011;65788;52.284;20.890;2023-08-01T09:38:16;3.30;;;2.10;;
76826;SDS011;65788;52.284;20.890;2023-08-01T09:40:44;3.40;;;2.30;;
76826;SDS011;65788;52.284;20.890;2023-08-01T09:43:12;4.00;;;1.90;;
76826;SDS011;65788;52.284;20.890;2023-08-01T09:45:52;3.30;;;2.20;;
76826;SDS011;65788;52.284;20.890;2023-08-01T09:48:27;3.50;;;2.00;;
76826;SDS011;65788;52.284;20.890;2023-08-01T09:51:06;3.50;;;2.30;;
76826;SDS011;65788;52.284;20.890;2023-08-01T09:53:53;4.40;;;2.40;;
76826;SDS011;65788;52.284;20.890;2023-08-01T09:56:22;4.20;;;2.50;;
76826;SDS011;65788;52.284;20.890;2023-08-01T09:58:52;4.80;;;2.10;;
76826;SDS011;65788;52.284;20.890;2023-08-01T10:01:23;4.60;;;2.50;;
76826;SDS011;65788;52.284;20.890;2023-08-01T10:03:52;3.00;;;2.10;;
76826;SDS011;65788;52.284;20.890;2023-08-01T10:06:24;3.40;;;2.40;;
76826;SDS011;65788;52.284;20.890;2023-08-01T10:08:54;3.50;;;2.00;;
76826;SDS011;65788;52.284;20.890;2023-08-01T10:11:22;3.80;;;2.20;;
76826;SDS011;65788;52.284;20.890;2023-08-01T10:13:49;5.00;;;2.40;;
76826;SDS011;65788;52.284;20.890;2023-08-01T10:16:16;3.30;;;2.10;;
76826;SDS011;65788;52.284;20.890;2023-08-01T10:18:43;3.40;;;2.20;;
76826;SDS011;65788;52.284;20.890;2023-08-01T10:21:13;3.60;;;2.50;;
76826;SDS011;65788;52.284;20.890;2023-08-01T10:23:42;2.90;;;2.10;;
76826;SDS011;65788;52.284;20.890;2023-08-01T10:26:11;4.50;;;2.20;;
76826;SDS011;65788;52.284;20.890;2023-08-01T10:28:39;3.10;;;2.30;;
76826;SDS011;65788;52.284;20.890;2023-08-01T10:33:35;3.50;;;2.20;;
76826;SDS011;65788;52.284;20.890;2023-08-01T10:36:12;4.70;;;2.60;;
76826;SDS011;65788;52.284;20.890;2023-08-01T10:41:20;3.50;;;1.90;;
76826;SDS011;65788;52.284;20.890;2023-08-01T10:43:47;3.70;;;2.10;;
76826;SDS011;65788;52.284;20.890;2023-08-01T10:46:14;4.40;;;2.40;;
76826;SDS011;65788;52.284;20.890;2023-08-01T10:48:53;4.10;;;2.40;;
76826;SDS011;65788;52.284;20.890;2023-08-01T10:51:20;4.10;;;2.10;;
76826;SDS011;65788;52.284;20.890;2023-08-01T10:53:46;4.10;;;2.50;;
76826;SDS011;65788;52.284;20.890;2023-08-01T10:56:16;3.40;;;2.20;;
76826;SDS011;65788;52.284;20.890;2023-08-01T10:58:45;4.20;;;2.30;;
76826;SDS011;65788;52.284;20.890;2023-08-01T11:01:13;2.90;;;2.00;;
76826;SDS011;65788;52.284;20.890;2023-08-01T11:03:40;4.00;;;2.30;;
76826;SDS011;65788;52.284;20.890;2023-08-01T11:06:08;3.80;;;2.40;;
76826;SDS011;65788;52.284;20.890;2023-08-01T11:08:38;5.10;;;2.60;;
76826;SDS011;65788;52.284;20.890;2023-08-01T11:11:07;4.10;;;2.40;;
76826;SDS011;65788;52.284;20.890;2023-08-01T11:13:39;3.90;;;2.40;;
76826;SDS011;65788;52.284;20.890;2023-08-01T11:16:05;4.40;;;2.60;;
76826;SDS011;65788;52.284;20.890;2023-08-01T11:18:44;5.20;;;2.40;;
76826;SDS011;65788;52.284;20.890;2023-08-01T11:21:11;5.80;;;2.60;;
76826;SDS011;65788;52.284;20.890;2023-08-01T11:23:38;6.30;;;2.90;;
76826;SDS011;65788;52.284;20.890;2023-08-01T11:26:08;9.40;;;2.50;;
76826;SDS011;65788;52.284;20.890;2023-08-01T11:28:37;5.50;;;2.60;;
76826;SDS011;65788;52.284;20.890;2023-08-01T11:31:13;5.10;;;2.70;;
76826;SDS011;65788;52.284;20.890;2023-08-01T11:33:39;6.70;;;2.60;;
76826;SDS011;65788;52.284;20.890;2023-08-01T11:36:06;6.30;;;2.60;;
76826;SDS011;65788;52.284;20.890;2023-08-01T11:38:34;5.70;;;2.70;;
76826;SDS011;65788;52.284;20.890;2023-08-01T11:41:03;6.40;;;2.40;;
76826;SDS011;65788;52.284;20.890;2023-08-01T11:43:40;5.00;;;2.90;;
76826;SDS011;65788;52.284;20.890;2023-08-01T11:46:07;5.60;;;2.90;;
76826;SDS011;65788;52.284;20.890;2023-08-01T11:48:35;6.90;;;3.10;;
76826;SDS011;65788;52.284;20.890;2023-08-01T11:51:02;5.10;;;2.40;;
76826;SDS011;65788;52.284;20.890;2023-08-01T11:53:30;5.90;;;2.50;;
76826;SDS011;65788;52.284;20.890;2023-08-01T11:56:19;4.80;;;2.40;;
76826;SDS011;65788;52.284;20.890;2023-08-01T11:58:46;6.80;;;2.80;;
76826;SDS011;65788;52.284;20.890;2023-08-01T12:01:13;6.70;;;2.80;;
76826;SDS011;65788;52.284;20.890;2023-08-01T12:03:47;4.90;;;2.70;;
76826;SDS011;65788;52.284;20.890;2023-08-01T12:06:14;5.40;;;2.50;;
76826;SDS011;65788;52.284;20.890;2023-08-01T12:08:42;5.70;;;2.80;;
76826;SDS011;65788;52.284;20.890;2023-08-01T12:14:03;4.40;;;2.90;;
76826;SDS011;65788;52.284;20.890;2023-08-01T12:16:31;4.80;;;3.10;;
76826;SDS011;65788;52.284;20.890;2023-08-01T12:18:57;6.80;;;2.70;;
76826;SDS011;65788;52.284;20.890;2023-08-01T12:21:24;4.20;;;2.80;;
76826;SDS011;65788;52.284;20.890;2023-08-01T12:23:51;5.40;;;2.70;;
76826;SDS011;65788;52.284;20.890;2023-08-01T12:26:17;5.40;;;2.70;;
76826;SDS011;65788;52.284;20.890;2023-08-01T12:28:44;4.60;;;2.80;;
76826;SDS011;65788;52.284;20.890;2023-08-01T12:31:11;4.50;;;2.60;;
76826;SDS011;65788;52.284;20.890;2023-08-01T12:33:38;6.40;;;3.10;;
76826;SDS011;65788;52.284;20.890;2023-08-01T12:36:04;4.60;;;2.80;;
76826;SDS011;65788;52.284;20.890;2023-08-01T12:38:31;5.10;;;2.50;;
76826;SDS011;65788;52.284;20.890;2023-08-01T12:40:58;4.00;;;2.80;;
76826;SDS011;65788;52.284;20.890;2023-08-01T12:43:24;4.70;;;3.20;;
76826;SDS011;65788;52.284;20.890;2023-08-01T12:45:51;4.60;;;2.90;;
76826;SDS011;65788;52.284;20.890;2023-08-01T12:48:17;4.80;;;2.60;;
76826;SDS011;65788;52.284;20.890;2023-08-01T12:50:44;4.20;;;2.60;;
76826;SDS011;65788;52.284;20.890;2023-08-01T12:55:43;3.90;;;2.70;;
76826;SDS011;65788;52.284;20.890;2023-08-01T12:58:11;5.10;;;3.30;;
76826;SDS011;65788;52.284;20.890;2023-08-01T13:00:41;4.10;;;2.70;;
76826;SDS011;65788;52.284;20.890;2023-08-01T13:03:10;5.10;;;3.00;;
76826;SDS011;65788;52.284;20.890;2023-08-01T13:05:38;4.20;;;2.90;;
76826;SDS011;65788;52.284;20.890;2023-08-01T13:08:06;4.50;;;2.80;;
76826;SDS011;65788;52.284;20.890;2023-08-01T13:10:34;5.00;;;2.90;;
76826;SDS011;65788;52.284;20.890;2023-08-01T13:13:02;4.20;;;2.80;;
76826;SDS011;65788;52.284;20.890;2023-08-01T13:15:30;5.60;;;3.10;;
76826;SDS011;65788;52.284;20.890;2023-08-01T13:17:56;4.30;;;2.70;;
76826;SDS011;65788;52.284;20.890;2023-08-01T13:20:23;5.30;;;2.90;;
76826;SDS011;65788;52.284;20.890;2023-08-01T13:22:50;5.30;;;2.80;;
76826;SDS011;65788;52.284;20.890;2023-08-01T13:25:18;5.00;;;3.00;;
76826;SDS011;65788;52.284;20.890;2023-08-01T13:27:45;5.30;;;2.90;;
76826;SDS011;65788;52.284;20.890;2023-08-01T13:30:11;5.10;;;3.10;;
76826;SDS011;65788;52.284;20.890;2023-08-01T13:32:44;5.30;;;3.20;;
76826;SDS011;65788;52.284;20.890;2023-08-01T13:35:12;5.30;;;2.90;;
76826;SDS011;65788;52.284;20.890;2023-08-01T13:37:39;4.80;;;3.00;;
76826;SDS011;65788;52.284;20.890;2023-08-01T13:40:06;4.40;;;2.80;;
76826;SDS011;65788;52.284;20.890;2023-08-01T13:42:34;4.90;;;3.10;;
76826;SDS011;65788;52.284;20.890;2023-08-01T13:45:01;4.60;;;2.70;;
76826;SDS011;65788;52.284;20.890;2023-08-01T13:47:28;4.50;;;3.00;;
76826;SDS011;65788;52.284;20.890;2023-08-01T13:49:54;4.30;;;2.90;;
76826;SDS011;65788;52.284;20.890;2023-08-01T13:52:21;6.40;;;3.20;;
76826;SDS011;65788;52.284;20.890;2023-08-01T13:54:48;4.20;;;3.10;;
76826;SDS011;65788;52.284;20.890;2023-08-01T13:57:15;6.40;;;3.10;;
76826;SDS011;65788;52.284;20.890;2023-08-01T13:59:41;5.30;;;3.30;;
76826;SDS011;65788;52.284;20.890;2023-08-01T14:02:08;3.80;;;2.80;;
76826;SDS011;65788;52.284;20.890;2023-08-01T14:04:34;4.90;;;3.30;;
76826;SDS011;65788;52.284;20.890;2023-08-01T14:07:01;5.40;;;3.40;;
76826;SDS011;65788;52.284;20.890;2023-08-01T14:09:29;5.00;;;3.50;;
76826;SDS011;65788;52.284;20.890;2023-08-01T14:11:58;5.40;;;3.20;;
76826;SDS011;65788;52.284;20.890;2023-08-01T14:14:25;4.10;;;3.00;;
76826;SDS011;65788;52.284;20.890;2023-08-01T14:16:52;4.30;;;2.60;;
76826;SDS011;65788;52.284;20.890;2023-08-01T14:19:19;5.00;;;3.20;;
76826;SDS011;65788;52.284;20.890;2023-08-01T14:21:46;4.70;;;3.10;;
76826;SDS011;65788;52.284;20.890;2023-08-01T14:24:13;5.00;;;3.00;;
76826;SDS011;65788;52.284;20.890;2023-08-01T14:26:40;5.50;;;3.50;;
76826;SDS011;65788;52.284;20.890;2023-08-01T14:29:07;4.80;;;3.10;;
76826;SDS011;65788;52.284;20.890;2023-08-01T14:31:34;5.00;;;3.00;;
76826;SDS011;65788;52.284;20.890;2023-08-01T14:34:01;4.20;;;3.20;;
76826;SDS011;65788;52.284;20.890;2023-08-01T14:36:27;4.70;;;3.10;;
76826;SDS011;65788;52.284;20.890;2023-08-01T14:38:54;4.50;;;3.10;;
76826;SDS011;65788;52.284;20.890;2023-08-01T14:41:23;4.50;;;3.40;;
76826;SDS011;65788;52.284;20.890;2023-08-01T14:43:50;12.60;;;3.20;;
76826;SDS011;65788;52.284;20.890;2023-08-01T14:46:16;6.50;;;3.60;;
76826;SDS011;65788;52.284;20.890;2023-08-01T14:48:43;5.90;;;3.50;;
76826;SDS011;65788;52.284;20.890;2023-08-01T14:51:10;5.20;;;2.80;;
76826;SDS011;65788;52.284;20.890;2023-08-01T14:53:36;5.10;;;3.30;;
76826;SDS011;65788;52.284;20.890;2023-08-01T14:56:03;6.40;;;3.30;;